Aviation Digital Data Service (ADDS)

Output produced by METARs form (2219 UTC 10 December 2016)
found at http://aviationweather.gov/adds/metars/
 
KATL 102149Z 1022/1124 10004KT P6SM SKC 
     FM111200 10006KT P6SM SCT025 
     FM111400 10007KT P6SM BKN025 
     FM111700 11007KT P6SM BKN015